createdAt,value
2022-12-17T00:01:55.037Z,32.13
2022-12-17T00:04:40.667Z,33.83
2022-12-17T00:07:26.131Z,32.77
2022-12-17T00:10:11.798Z,32.07
2022-12-17T00:12:58.612Z,30.77
2022-12-17T00:15:44.317Z,33.83
2022-12-17T00:18:30.232Z,31.80
2022-12-17T00:21:20.097Z,31.57
2022-12-17T00:24:06.536Z,32.27
2022-12-17T00:26:52.521Z,30.50
2022-12-17T00:29:39.484Z,30.20
2022-12-17T00:32:25.350Z,30.57
2022-12-17T00:35:11.198Z,31.67
2022-12-17T00:37:56.869Z,32.13
2022-12-17T00:40:42.534Z,33.33
2022-12-17T00:43:29.658Z,32.03
2022-12-17T00:46:17.013Z,31.43
2022-12-17T00:49:03.207Z,30.70
2022-12-17T00:51:48.938Z,29.60
2022-12-17T00:54:34.229Z,31.67
2022-12-17T00:57:20.291Z,33.67
2022-12-17T01:00:05.538Z,32.50
2022-12-17T01:02:52.745Z,32.50
2022-12-17T01:05:39.271Z,31.13
2022-12-17T01:08:31.129Z,30.10
2022-12-17T01:11:19.986Z,30.70
2022-12-17T01:14:05.439Z,31.50
2022-12-17T01:16:51.236Z,31.60
2022-12-17T01:19:38.076Z,31.57
2022-12-17T01:22:32.501Z,31.30
2022-12-17T01:25:17.761Z,30.70
2022-12-17T01:28:07.697Z,32.73
2022-12-17T01:30:55.716Z,30.57
2022-12-17T01:33:40.988Z,31.90
2022-12-17T01:36:27.680Z,33.50
2022-12-17T01:39:13.114Z,33.10
2022-12-17T01:41:58.747Z,33.73
2022-12-17T01:45:07.184Z,30.20
2022-12-17T01:47:57.913Z,28.53
2022-12-17T01:50:47.221Z,32.07
2022-12-17T01:53:36.715Z,31.67
2022-12-17T01:56:24.544Z,32.73
2022-12-17T01:59:10.188Z,32.17
2022-12-17T02:01:56.106Z,33.97
2022-12-17T02:04:42.348Z,29.73
2022-12-17T02:07:46.756Z,32.00
2022-12-17T02:10:41.840Z,31.97
2022-12-17T02:13:33.956Z,33.60
2022-12-17T02:16:26.871Z,32.07
2022-12-17T02:19:19.101Z,30.73
2022-12-17T02:22:09.591Z,35.17
2022-12-17T02:25:02.959Z,34.87
2022-12-17T02:27:50.464Z,32.37
2022-12-17T02:30:36.367Z,31.90
2022-12-17T02:33:23.145Z,31.30
2022-12-17T02:36:12.310Z,32.20
2022-12-17T02:38:58.072Z,34.37
2022-12-17T02:41:47.079Z,32.00
2022-12-17T02:44:36.269Z,33.80
2022-12-17T02:47:24.417Z,33.60
2022-12-17T02:50:10.324Z,32.93
2022-12-17T02:53:02.728Z,31.87
2022-12-17T02:55:48.984Z,32.90
2022-12-17T02:58:34.331Z,37.03
2022-12-17T03:01:22.011Z,33.07
2022-12-17T03:04:07.709Z,31.73
2022-12-17T03:06:52.266Z,31.83
2022-12-17T03:09:38.284Z,34.23
2022-12-17T03:12:24.258Z,32.50
2022-12-17T03:15:09.765Z,32.87
2022-12-17T03:17:56.068Z,27.30
2022-12-17T03:20:41.440Z,30.10
2022-12-17T03:23:37.899Z,28.37
2022-12-17T03:26:23.868Z,31.27
2022-12-17T03:29:09.165Z,32.00
2022-12-17T03:31:55.104Z,35.33
2022-12-17T03:34:41.409Z,33.50
2022-12-17T03:37:27.318Z,30.87
2022-12-17T03:40:13.200Z,31.23
2022-12-17T03:42:58.787Z,32.07
2022-12-17T03:45:44.596Z,33.80
2022-12-17T03:48:32.499Z,30.57
2022-12-17T03:51:20.118Z,33.10
2022-12-17T03:54:06.969Z,33.60
2022-12-17T03:56:53.519Z,31.10
2022-12-17T03:59:39.128Z,30.63
2022-12-17T04:02:25.014Z,30.60
2022-12-17T04:05:16.569Z,30.80
2022-12-17T04:08:06.295Z,33.70
2022-12-17T04:10:52.030Z,32.83
2022-12-17T04:13:40.984Z,31.00
2022-12-17T04:16:27.440Z,30.43
2022-12-17T04:19:13.484Z,30.63
2022-12-17T04:21:59.293Z,35.47
2022-12-17T04:24:45.296Z,32.60
2022-12-17T04:27:30.839Z,34.33
2022-12-17T04:30:16.066Z,34.10
2022-12-17T04:33:01.577Z,33.40
2022-12-17T04:35:46.832Z,33.37
2022-12-17T04:38:32.237Z,33.80
2022-12-17T04:41:18.661Z,33.00
2022-12-17T04:44:04.243Z,32.07
2022-12-17T04:46:49.831Z,32.07
2022-12-17T04:49:35.720Z,34.93
2022-12-17T04:52:21.241Z,31.10
2022-12-17T04:55:07.120Z,31.43
2022-12-17T04:57:53.596Z,33.27
2022-12-17T05:00:39.771Z,32.97
2022-12-17T05:03:28.035Z,33.40
2022-12-17T05:06:13.833Z,32.27
2022-12-17T05:08:59.290Z,31.20
2022-12-17T05:11:44.728Z,31.40
2022-12-17T05:14:30.741Z,30.93
2022-12-17T05:17:16.266Z,30.20
2022-12-17T05:20:01.853Z,33.97
2022-12-17T05:22:47.526Z,35.40
2022-12-17T05:25:35.804Z,35.47
2022-12-17T05:28:21.555Z,31.90
2022-12-17T05:31:11.821Z,34.30
2022-12-17T05:33:57.868Z,33.70
2022-12-17T05:36:43.930Z,34.10
2022-12-17T05:39:26.058Z,40.03
2022-12-17T05:42:14.293Z,34.37
2022-12-17T05:45:00.112Z,34.67
2022-12-17T05:47:46.721Z,33.80
2022-12-17T05:50:34.430Z,33.90
2022-12-17T05:53:20.958Z,31.97
2022-12-17T05:56:10.238Z,33.37
2022-12-17T05:58:56.914Z,36.50
2022-12-17T06:01:42.504Z,33.77
2022-12-17T06:04:29.114Z,35.50
2022-12-17T06:07:15.025Z,36.60
2022-12-17T06:10:00.715Z,33.37
2022-12-17T06:12:46.811Z,39.07
2022-12-17T06:15:32.523Z,36.80
2022-12-17T06:18:18.238Z,33.67
2022-12-17T06:21:05.757Z,35.13
2022-12-17T06:23:51.339Z,35.10
2022-12-17T06:26:37.967Z,34.37
2022-12-17T06:29:23.541Z,34.40
2022-12-17T06:32:09.183Z,31.10
2022-12-17T06:34:54.935Z,35.17
2022-12-17T06:37:41.584Z,37.67
2022-12-17T06:40:28.400Z,35.67
2022-12-17T06:43:14.982Z,36.07
2022-12-17T06:46:00.875Z,34.50
2022-12-17T06:48:46.328Z,37.80
2022-12-17T06:51:32.346Z,36.90
2022-12-17T06:54:19.151Z,33.80
2022-12-17T06:57:05.010Z,35.60
2022-12-17T06:59:50.661Z,41.07
2022-12-17T07:02:36.712Z,37.07
2022-12-17T07:05:22.649Z,43.90
2022-12-17T07:08:15.962Z,47.77
2022-12-17T07:11:03.174Z,44.30
2022-12-17T07:13:48.803Z,46.30
2022-12-17T07:16:34.550Z,44.50
2022-12-17T07:19:23.823Z,40.97
2022-12-17T07:22:11.179Z,39.50
2022-12-17T07:25:11.314Z,41.00
2022-12-17T07:28:00.398Z,41.30
2022-12-17T07:30:59.858Z,37.73
2022-12-17T07:33:45.697Z,41.13
2022-12-17T07:36:31.563Z,38.43
2022-12-17T07:39:17.227Z,40.03
2022-12-17T07:42:03.059Z,37.10
2022-12-17T07:44:50.053Z,38.50
2022-12-17T07:47:35.391Z,35.07
2022-12-17T07:50:21.289Z,40.87
2022-12-17T07:53:16.441Z,40.00
2022-12-17T07:56:02.175Z,38.63
2022-12-17T07:58:47.804Z,38.60
2022-12-17T08:01:35.035Z,40.10
2022-12-17T08:04:20.968Z,42.83
2022-12-17T08:07:11.056Z,42.60
2022-12-17T08:09:58.041Z,26.30
2022-12-17T08:12:43.803Z,39.37
2022-12-17T08:15:29.851Z,40.13
2022-12-17T08:18:25.898Z,39.67
2022-12-17T08:21:12.080Z,39.90
2022-12-17T08:23:58.223Z,37.30
2022-12-17T08:26:47.902Z,44.43
2022-12-17T08:29:34.897Z,38.87
2022-12-17T08:32:20.450Z,38.17
2022-12-17T08:35:07.374Z,40.10
2022-12-17T08:37:54.095Z,41.70
2022-12-17T08:40:40.213Z,42.53
2022-12-17T08:43:25.757Z,44.03
2022-12-17T08:46:11.426Z,45.30
2022-12-17T08:48:57.490Z,45.27
2022-12-17T08:51:43.667Z,32.37
2022-12-17T08:54:29.543Z,45.60
2022-12-17T08:57:27.085Z,43.03
2022-12-17T09:00:16.627Z,41.23
2022-12-17T09:03:02.625Z,38.97
2022-12-17T09:05:48.653Z,47.40
2022-12-17T09:08:34.868Z,41.37
2022-12-17T09:11:20.273Z,43.33
2022-12-17T09:14:05.913Z,38.97
2022-12-17T09:16:51.642Z,38.37
2022-12-17T09:19:37.551Z,29.63
2022-12-17T09:22:22.999Z,35.57
2022-12-17T09:25:09.150Z,37.70
2022-12-17T09:27:54.648Z,38.53
2022-12-17T09:30:39.862Z,42.60
2022-12-17T09:33:25.501Z,37.27
2022-12-17T09:36:10.637Z,43.90
2022-12-17T09:38:55.982Z,23.93
2022-12-17T09:41:45.566Z,21.97
2022-12-17T09:44:38.392Z,36.13
2022-12-17T09:47:33.686Z,38.30
2022-12-17T09:50:21.302Z,43.20
2022-12-17T09:53:07.390Z,29.40
2022-12-17T09:55:58.910Z,40.77
2022-12-17T09:58:47.607Z,40.13
2022-12-17T10:01:38.141Z,47.97
2022-12-17T10:04:30.193Z,39.63
2022-12-17T10:07:15.581Z,44.63
2022-12-17T10:10:02.169Z,46.10
2022-12-17T10:12:47.394Z,43.50
2022-12-17T10:15:34.525Z,46.53
2022-12-17T10:18:24.996Z,49.90
2022-12-17T10:21:13.271Z,44.17
2022-12-17T10:23:58.641Z,50.77
2022-12-17T10:26:47.933Z,49.03
2022-12-17T10:29:36.076Z,45.70
2022-12-17T10:32:29.864Z,37.60
2022-12-17T10:35:30.620Z,41.80
2022-12-17T10:38:18.175Z,40.20
2022-12-17T10:41:03.431Z,48.80
2022-12-17T10:43:51.259Z,50.90
2022-12-17T10:46:46.665Z,45.97
2022-12-17T10:49:34.887Z,51.77
2022-12-17T10:52:24.046Z,46.23
2022-12-17T10:55:19.625Z,48.07
2022-12-17T10:58:07.391Z,41.17
2022-12-17T11:01:09.181Z,40.50
2022-12-17T11:04:06.328Z,45.20
2022-12-17T11:06:55.721Z,29.60
2022-12-17T11:09:52.346Z,46.60
2022-12-17T11:12:52.159Z,45.67
2022-12-17T11:15:42.020Z,43.33
2022-12-17T11:18:42.667Z,41.97
2022-12-17T11:21:47.430Z,39.37
2022-12-17T11:24:42.058Z,42.50
2022-12-17T11:27:44.633Z,36.73
2022-12-17T11:30:31.265Z,40.43
2022-12-17T11:33:25.956Z,39.63
2022-12-17T11:36:18.671Z,43.43
2022-12-17T11:39:13.448Z,36.53
2022-12-17T11:42:11.473Z,36.87
2022-12-17T11:45:20.611Z,36.53
2022-12-17T11:48:12.999Z,29.00
2022-12-17T11:51:05.326Z,28.67
2022-12-17T11:54:13.018Z,30.90
2022-12-17T11:57:03.945Z,34.43
2022-12-17T11:59:55.912Z,36.70
2022-12-17T12:03:03.501Z,35.00
2022-12-17T12:06:00.167Z,39.40
2022-12-17T12:08:48.263Z,38.30
2022-12-17T12:11:45.322Z,35.17
2022-12-17T12:14:44.301Z,35.87
2022-12-17T12:18:02.503Z,32.13
2022-12-17T12:21:04.152Z,34.23
2022-12-17T12:24:00.731Z,34.00
2022-12-17T12:26:51.974Z,24.23
2022-12-17T12:29:49.890Z,32.13
2022-12-17T12:32:41.635Z,30.73
2022-12-17T12:35:34.323Z,35.93
2022-12-17T12:38:20.991Z,35.20
2022-12-17T12:41:15.281Z,32.47
2022-12-17T12:44:06.701Z,30.10
2022-12-17T12:46:56.440Z,35.37
2022-12-17T12:49:44.970Z,25.17
2022-12-17T12:52:36.908Z,27.40
2022-12-17T12:59:42.298Z,30.50
2022-12-17T13:02:48.867Z,30.07
2022-12-17T13:06:07.763Z,13.97
2022-12-17T13:12:36.578Z,18.97
2022-12-17T13:15:50.953Z,26.97
2022-12-17T13:18:28.866Z,28.70
2022-12-17T13:21:08.835Z,26.03
2022-12-17T13:23:38.836Z,28.40
2022-12-17T13:26:22.279Z,31.07
2022-12-17T13:29:20.118Z,33.97
2022-12-17T13:32:08.091Z,32.57
2022-12-17T13:34:55.239Z,28.30
2022-12-17T13:37:47.307Z,30.43
2022-12-17T13:40:31.531Z,29.60
2022-12-17T13:44:17.369Z,23.40
2022-12-17T13:46:52.232Z,19.47
2022-12-17T13:49:27.629Z,20.77
2022-12-17T13:52:23.696Z,13.73
2022-12-17T13:54:52.615Z,28.93
2022-12-17T13:57:24.944Z,25.50
2022-12-17T13:59:54.048Z,29.53
2022-12-17T14:02:28.483Z,18.50
2022-12-17T14:05:04.024Z,22.50
2022-12-17T14:07:45.967Z,23.47
2022-12-17T14:10:26.160Z,29.23
2022-12-17T14:13:11.517Z,25.57
2022-12-17T14:15:49.593Z,25.70
2022-12-17T14:18:24.974Z,27.90
2022-12-17T14:20:58.744Z,28.47
2022-12-17T14:23:32.754Z,41.73
2022-12-17T14:26:01.045Z,27.60
2022-12-17T14:28:35.604Z,27.47
2022-12-17T14:31:26.770Z,20.53
2022-12-17T14:34:06.816Z,23.63
2022-12-17T14:36:41.446Z,24.10
2022-12-17T14:39:29.622Z,25.13
2022-12-17T14:42:20.065Z,31.33
2022-12-17T14:44:53.389Z,31.67
2022-12-17T14:47:36.041Z,30.17
2022-12-17T14:50:10.132Z,30.77
2022-12-17T14:52:46.670Z,25.77
2022-12-17T14:55:36.325Z,25.23
2022-12-17T14:58:20.406Z,27.77
2022-12-17T15:00:56.300Z,23.93
2022-12-17T15:03:28.002Z,26.47
2022-12-17T15:05:59.216Z,30.70
2022-12-17T15:08:35.108Z,24.10
2022-12-17T15:11:18.608Z,23.00
2022-12-17T15:13:49.216Z,27.07
2022-12-17T15:16:24.667Z,27.40
2022-12-17T15:18:52.591Z,40.30
2022-12-17T15:21:20.833Z,32.83
2022-12-17T15:23:51.425Z,20.97
2022-12-17T15:26:20.991Z,24.30
2022-12-17T15:28:48.910Z,24.10
2022-12-17T15:31:25.002Z,20.20
2022-12-17T15:33:54.271Z,21.23
2022-12-17T15:36:24.818Z,29.63
2022-12-17T15:38:52.563Z,25.30
2022-12-17T15:41:39.112Z,21.07
2022-12-17T15:44:06.909Z,22.43
2022-12-17T15:46:35.354Z,30.40
2022-12-17T15:49:03.567Z,25.50
2022-12-17T15:51:31.248Z,23.97
2022-12-17T15:53:59.542Z,24.90
2022-12-17T15:56:31.473Z,24.03
2022-12-17T15:58:59.704Z,23.33
2022-12-17T16:01:27.726Z,24.43
2022-12-17T16:03:55.772Z,22.73
2022-12-17T16:06:23.710Z,18.43
2022-12-17T16:08:51.616Z,23.50
2022-12-17T16:11:23.785Z,23.57
2022-12-17T16:14:01.140Z,23.33
2022-12-17T16:16:31.898Z,22.87
2022-12-17T16:19:01.751Z,23.83
2022-12-17T16:21:29.419Z,20.87
2022-12-17T16:24:05.164Z,19.97
2022-12-17T16:26:35.639Z,21.97
2022-12-17T16:29:06.755Z,26.80
2022-12-17T16:31:41.131Z,22.97
2022-12-17T16:34:12.317Z,19.60
2022-12-17T16:36:40.493Z,21.83
2022-12-17T16:39:14.406Z,20.27
2022-12-17T16:41:43.660Z,18.07
2022-12-17T16:44:12.157Z,17.23
2022-12-17T16:46:46.173Z,25.77
2022-12-17T16:49:26.075Z,27.77
2022-12-17T16:52:03.009Z,25.17
2022-12-17T16:54:42.984Z,19.57
2022-12-17T16:57:19.260Z,24.20
2022-12-17T16:59:53.311Z,22.87
2022-12-17T17:02:28.754Z,19.20
2022-12-17T17:05:02.038Z,18.50
2022-12-17T17:07:34.498Z,15.67
2022-12-17T17:10:08.257Z,16.73
2022-12-17T17:12:59.024Z,18.70
2022-12-17T17:16:47.303Z,17.80
2022-12-17T17:19:48.240Z,17.77
2022-12-17T17:22:23.720Z,15.27
2022-12-17T17:24:58.897Z,17.03
2022-12-17T17:34:00.385Z,17.20
2022-12-17T17:36:40.778Z,17.70
2022-12-17T17:39:17.650Z,19.73
2022-12-17T17:41:45.519Z,20.93
2022-12-17T17:44:24.774Z,18.90
2022-12-17T17:47:10.166Z,19.20
2022-12-17T17:50:12.616Z,20.60
2022-12-17T17:53:01.568Z,18.00
2022-12-17T17:55:29.312Z,18.57
2022-12-17T17:57:57.138Z,17.90
2022-12-17T18:00:32.091Z,20.07
2022-12-17T18:03:07.502Z,19.33
2022-12-17T18:05:41.624Z,19.63
2022-12-17T18:08:13.362Z,19.83
2022-12-17T18:10:45.196Z,19.27
2022-12-17T18:13:31.241Z,20.30
2022-12-17T18:16:01.941Z,20.43
2022-12-17T18:18:29.456Z,21.60
2022-12-17T18:21:04.930Z,24.50
2022-12-17T18:23:32.579Z,26.30
2022-12-17T18:26:06.736Z,24.43
2022-12-17T18:28:34.590Z,30.93
2022-12-17T18:31:07.971Z,49.73
2022-12-17T18:33:36.653Z,82.87
2022-12-17T18:36:11.545Z,78.17
2022-12-17T18:38:40.029Z,66.10
2022-12-17T18:41:45.172Z,71.20
2022-12-17T18:44:13.634Z,75.10
2022-12-17T18:46:42.481Z,121.07
2022-12-17T18:49:15.150Z,112.93
2022-12-17T18:51:53.291Z,58.77
2022-12-17T18:54:54.869Z,70.23
2022-12-17T18:57:22.938Z,60.50
2022-12-17T19:05:45.150Z,41.57
2022-12-17T19:08:16.920Z,45.33
2022-12-17T19:10:44.763Z,48.50
2022-12-17T19:13:18.660Z,41.00
2022-12-17T19:15:52.126Z,33.83
2022-12-17T19:25:44.215Z,27.57
2022-12-17T19:28:29.555Z,18.37
2022-12-17T19:30:57.532Z,18.00
2022-12-17T19:33:27.113Z,22.13
2022-12-17T19:36:42.326Z,20.40
2022-12-17T19:39:15.192Z,13.63
2022-12-17T19:41:54.000Z,20.03
2022-12-17T19:44:41.887Z,18.20
2022-12-17T19:47:46.771Z,18.27
2022-12-17T19:54:15.935Z,16.10
2022-12-17T19:59:58.362Z,17.17
2022-12-17T20:02:32.732Z,18.63
2022-12-17T20:05:00.910Z,20.20
2022-12-17T20:07:29.884Z,19.10
2022-12-17T20:10:00.711Z,19.80
2022-12-17T20:12:39.173Z,20.67
2022-12-17T20:15:10.106Z,22.67
2022-12-17T20:17:51.600Z,18.00
2022-12-17T20:20:22.215Z,20.73
2022-12-17T20:24:07.689Z,19.80
2022-12-17T20:30:17.321Z,22.63
2022-12-17T20:40:36.133Z,13.80
2022-12-17T20:43:07.632Z,15.30
2022-12-17T20:45:38.245Z,19.90
2022-12-17T20:48:09.080Z,15.20
2022-12-17T20:50:51.188Z,21.47
2022-12-17T20:53:23.113Z,23.27
2022-12-17T20:59:02.373Z,24.40
2022-12-17T21:02:02.493Z,26.33
2022-12-17T21:05:23.078Z,28.37
2022-12-17T21:11:39.893Z,24.80
2022-12-17T21:14:08.992Z,27.07
2022-12-17T21:16:47.527Z,27.93
2022-12-17T21:19:29.150Z,22.47
2022-12-17T21:21:56.832Z,26.07
2022-12-17T21:28:03.965Z,30.40
2022-12-17T21:30:36.314Z,26.10
2022-12-17T21:33:08.735Z,27.17
2022-12-17T21:36:17.334Z,29.00
2022-12-17T21:38:44.964Z,26.10
2022-12-17T21:41:36.362Z,25.93
2022-12-17T21:47:57.098Z,22.10
2022-12-17T21:50:57.665Z,26.73
2022-12-17T21:53:31.777Z,42.73
2022-12-17T21:56:11.673Z,29.93
2022-12-17T21:58:45.970Z,19.10
2022-12-17T22:01:26.729Z,29.90
2022-12-17T22:04:05.599Z,30.00
2022-12-17T22:10:50.442Z,23.00
2022-12-17T22:14:25.501Z,30.53
2022-12-17T22:17:26.121Z,26.40
2022-12-17T22:20:39.962Z,28.73
2022-12-17T22:23:20.928Z,26.10
2022-12-17T22:26:10.950Z,17.70
2022-12-17T22:28:46.227Z,22.27
2022-12-17T22:32:17.831Z,25.13
2022-12-17T22:36:07.831Z,22.20
2022-12-17T22:40:52.353Z,26.60
2022-12-17T22:44:55.812Z,28.60
2022-12-17T22:47:30.818Z,26.27
2022-12-17T22:50:16.711Z,27.30
2022-12-17T22:52:55.676Z,29.90
2022-12-17T22:55:30.832Z,29.40
2022-12-17T22:58:08.088Z,27.23
2022-12-17T23:00:43.323Z,27.67
2022-12-17T23:03:32.222Z,26.87
2022-12-17T23:24:02.390Z,25.10
2022-12-17T23:26:38.076Z,23.00
2022-12-17T23:29:36.750Z,24.47
2022-12-17T23:32:04.895Z,24.87
2022-12-17T23:34:53.632Z,23.90
2022-12-17T23:37:58.981Z,22.23
2022-12-17T23:40:33.080Z,23.30
2022-12-17T23:44:12.366Z,19.93
2022-12-17T23:46:51.620Z,16.20
2022-12-17T23:52:34.739Z,22.93
2022-12-17T23:55:02.211Z,21.70
2022-12-17T23:57:30.683Z,27.93
2022-12-17T23:59:58.025Z,23.03
